createdAt,value
2023-03-23T15:59:43.914Z,66.47
2023-03-23T16:02:22.390Z,67.14
2023-03-23T16:04:51.895Z,66.45
2023-03-23T16:07:24.447Z,66.96
2023-03-23T16:09:52.553Z,66.58
2023-03-23T16:12:22.872Z,66.19
2023-03-23T16:14:51.466Z,66.69
2023-03-23T16:17:21.792Z,67.16
2023-03-23T16:19:50.390Z,66.39
2023-03-23T16:22:18.783Z,66.35
2023-03-23T16:24:47.426Z,67.27
2023-03-23T16:27:16.221Z,67.36
2023-03-23T16:30:02.890Z,67.25
2023-03-23T16:35:00.690Z,65.66
2023-03-23T16:37:33.491Z,66.75
2023-03-23T16:40:02.473Z,67.68
2023-03-23T16:42:30.777Z,67.87
2023-03-23T16:45:00.562Z,67.41
2023-03-23T16:47:28.575Z,67.46
2023-03-23T16:49:57.387Z,68.23
2023-03-23T16:52:26.278Z,67.20
2023-03-23T16:54:54.956Z,67.85
2023-03-23T16:57:23.121Z,66.98
2023-03-23T16:59:51.664Z,67.16
2023-03-23T17:02:21.662Z,66.98
2023-03-23T17:04:50.433Z,66.19
2023-03-23T17:07:19.140Z,66.17
2023-03-23T17:09:48.199Z,65.31
2023-03-23T17:12:16.804Z,65.37
2023-03-23T17:14:46.665Z,65.79
2023-03-23T17:17:14.850Z,66.79
2023-03-23T17:19:44.757Z,66.90
2023-03-23T17:22:13.321Z,67.42
2023-03-23T17:24:41.977Z,67.91
2023-03-23T17:27:10.463Z,67.70
2023-03-23T17:29:38.768Z,69.43
2023-03-23T17:32:07.353Z,71.15
2023-03-23T17:34:35.556Z,72.07
2023-03-23T17:37:06.054Z,73.87
2023-03-23T17:39:43.142Z,73.96
2023-03-23T17:42:12.452Z,73.47
2023-03-23T17:44:42.340Z,74.00
2023-03-23T17:47:10.989Z,73.16
2023-03-23T17:49:40.083Z,73.28
2023-03-23T17:52:13.298Z,73.95
2023-03-23T17:54:48.599Z,74.30
2023-03-23T17:57:17.668Z,73.93
2023-03-23T17:59:46.532Z,74.37
2023-03-23T18:02:14.936Z,74.75
2023-03-23T18:04:43.428Z,74.95
2023-03-23T18:07:14.308Z,75.90
2023-03-23T18:09:45.687Z,75.01
2023-03-23T18:12:14.477Z,74.39
2023-03-23T18:14:44.082Z,73.28
2023-03-23T18:17:12.310Z,74.00
2023-03-23T18:19:40.736Z,72.49
2023-03-23T18:22:09.024Z,72.22
2023-03-23T18:24:38.695Z,72.85
2023-03-23T18:27:07.324Z,72.73
2023-03-23T18:29:35.563Z,72.03
2023-03-23T18:32:04.130Z,71.69
2023-03-23T18:34:32.752Z,71.76
2023-03-23T18:37:01.410Z,72.62
2023-03-23T18:39:38.175Z,72.66
2023-03-23T18:42:07.908Z,72.54
2023-03-23T18:44:36.256Z,72.35
2023-03-23T18:47:04.835Z,72.91
2023-03-23T18:49:34.818Z,73.13
2023-03-23T18:52:03.438Z,73.27
2023-03-23T18:54:34.746Z,74.09
2023-03-23T18:57:03.630Z,74.26
2023-03-23T18:59:34.682Z,74.90
2023-03-23T19:02:10.215Z,74.24
2023-03-23T19:04:39.720Z,73.78
2023-03-23T19:07:08.110Z,73.89
2023-03-23T19:09:37.192Z,73.95
2023-03-23T19:12:06.088Z,73.44
2023-03-23T19:14:37.424Z,72.41
2023-03-23T19:17:05.959Z,72.45
2023-03-23T19:19:34.678Z,72.97
2023-03-23T19:22:03.613Z,73.02
2023-03-23T19:24:32.396Z,73.09
2023-03-23T19:27:01.178Z,73.65
2023-03-23T19:29:29.489Z,73.90
2023-03-23T19:32:00.061Z,73.41
2023-03-23T19:34:31.070Z,73.68
2023-03-23T19:37:05.345Z,74.64
2023-03-23T19:39:35.408Z,74.48
2023-03-23T19:42:05.816Z,73.91
2023-03-23T19:44:35.139Z,74.21
2023-03-23T19:47:05.728Z,74.26
2023-03-23T19:49:33.899Z,74.67
2023-03-23T19:52:07.288Z,75.06
2023-03-23T19:54:41.538Z,75.58
2023-03-23T19:57:10.843Z,76.43
2023-03-23T19:59:39.856Z,76.22
2023-03-23T20:02:12.754Z,76.59
2023-03-23T20:04:41.835Z,75.97
2023-03-23T20:07:11.489Z,75.92
2023-03-23T20:09:39.877Z,75.75
2023-03-23T20:12:09.670Z,76.10
2023-03-23T20:14:45.050Z,77.19
2023-03-23T20:17:15.993Z,77.88
2023-03-23T20:19:44.748Z,77.22
2023-03-23T20:22:14.467Z,77.25
2023-03-23T20:24:45.340Z,77.88
2023-03-23T20:27:14.148Z,77.83
2023-03-23T20:29:42.646Z,78.45
2023-03-23T20:32:12.383Z,78.29
2023-03-23T20:34:41.920Z,78.45
2023-03-23T20:37:16.119Z,77.88
2023-03-23T20:39:46.807Z,78.05
2023-03-23T20:42:16.988Z,78.19
2023-03-23T20:44:45.529Z,78.63
2023-03-23T20:47:13.561Z,78.66
2023-03-23T20:49:43.318Z,77.91
2023-03-23T20:52:22.847Z,78.37
2023-03-23T20:54:51.103Z,77.83
2023-03-23T20:57:20.897Z,78.08
2023-03-23T20:59:49.316Z,77.03
2023-03-23T21:02:19.847Z,75.67
2023-03-23T21:04:52.923Z,75.45
2023-03-23T21:07:27.430Z,76.12
2023-03-23T21:09:56.294Z,76.44
2023-03-23T21:12:24.940Z,76.01
2023-03-23T21:14:53.430Z,75.36
2023-03-23T21:17:21.842Z,75.78
2023-03-23T21:19:52.582Z,74.87
2023-03-23T21:22:21.670Z,76.03
2023-03-23T21:24:51.616Z,74.53
2023-03-23T21:27:20.017Z,74.49
2023-03-23T21:29:49.497Z,74.51
2023-03-23T21:32:17.529Z,74.23
2023-03-23T21:34:47.827Z,74.45
2023-03-23T21:37:17.351Z,74.41
2023-03-23T21:39:46.324Z,74.33
2023-03-23T21:42:14.997Z,74.24
2023-03-23T21:44:43.679Z,74.89
2023-03-23T21:47:13.003Z,76.02
2023-03-23T21:49:42.116Z,74.06
2023-03-23T21:52:10.301Z,74.49
2023-03-23T21:54:41.340Z,74.04
2023-03-23T21:57:09.876Z,73.86
2023-03-23T21:59:38.393Z,75.80
2023-03-23T22:02:07.153Z,75.32
2023-03-23T22:04:56.819Z,75.69
2023-03-23T22:07:44.039Z,75.59
2023-03-23T22:10:14.831Z,74.44
2023-03-23T22:12:43.247Z,74.96
2023-03-23T22:15:15.916Z,75.78
2023-03-23T22:17:44.504Z,76.02
2023-03-23T22:20:15.381Z,74.39
2023-03-23T22:22:45.003Z,74.56
2023-03-23T22:25:14.947Z,74.48
2023-03-23T22:27:43.371Z,74.50
2023-03-23T22:30:18.646Z,74.47
2023-03-23T22:32:47.631Z,74.28
2023-03-23T22:35:16.119Z,74.53
2023-03-23T22:37:44.600Z,75.18
2023-03-23T22:40:14.778Z,74.97
2023-03-23T22:42:43.329Z,75.49
2023-03-23T22:45:11.727Z,74.58
2023-03-23T22:47:40.509Z,74.85
2023-03-23T22:50:10.777Z,75.26
2023-03-23T22:52:39.970Z,75.70
2023-03-23T22:55:12.477Z,75.42
2023-03-23T22:57:44.272Z,75.40
2023-03-23T23:00:15.696Z,75.77
2023-03-23T23:02:44.594Z,75.01
2023-03-23T23:05:13.802Z,75.80
2023-03-23T23:07:42.548Z,75.91
2023-03-23T23:10:10.976Z,76.17
2023-03-23T23:12:42.526Z,76.89
2023-03-23T23:15:14.592Z,77.70
2023-03-23T23:17:43.189Z,77.23
2023-03-23T23:20:14.296Z,77.56
2023-03-23T23:22:44.501Z,77.79
2023-03-23T23:25:13.669Z,77.80
2023-03-23T23:27:43.288Z,77.78
2023-03-23T23:30:13.593Z,78.51
2023-03-23T23:32:44.887Z,78.54
2023-03-23T23:35:14.501Z,78.92
2023-03-23T23:37:42.872Z,79.14
2023-03-23T23:40:11.278Z,78.66
2023-03-23T23:42:39.808Z,77.16
2023-03-23T23:45:10.792Z,76.42
2023-03-23T23:47:39.864Z,76.60
2023-03-23T23:50:09.605Z,76.05
2023-03-23T23:52:39.095Z,76.10
2023-03-23T23:55:09.083Z,76.94
2023-03-23T23:57:37.432Z,75.85
